createdAt,value
2023-03-07T00:01:08.651Z,97.77
2023-03-07T00:03:37.132Z,97.87
2023-03-07T00:06:09.073Z,97.70
2023-03-07T00:08:35.846Z,96.92
2023-03-07T00:11:06.688Z,97.54
2023-03-07T00:13:34.264Z,95.73
2023-03-07T00:16:09.030Z,96.42
2023-03-07T00:18:35.698Z,95.79
2023-03-07T00:21:06.342Z,96.29
2023-03-07T00:23:34.340Z,96.75
2023-03-07T00:26:09.081Z,95.00
2023-03-07T00:28:35.568Z,96.27
2023-03-07T00:31:07.705Z,96.81
2023-03-07T00:33:35.123Z,96.17
2023-03-07T00:36:04.757Z,96.49
2023-03-07T00:38:33.082Z,95.87
2023-03-07T00:41:17.362Z,96.42
2023-03-07T00:43:47.061Z,96.83
2023-03-07T00:46:15.444Z,97.66
2023-03-07T00:48:43.463Z,98.11
2023-03-07T00:51:12.319Z,96.59
2023-03-07T00:53:39.797Z,95.37
2023-03-07T00:56:19.753Z,95.40
2023-03-07T00:58:47.304Z,91.80
2023-03-07T01:01:16.521Z,94.18
2023-03-07T01:03:43.480Z,96.20
2023-03-07T01:06:15.759Z,95.45
2023-03-07T01:08:42.480Z,93.66
2023-03-07T01:11:11.636Z,94.66
2023-03-07T01:13:38.836Z,93.89
2023-03-07T01:16:21.121Z,95.01
2023-03-07T01:18:57.146Z,94.94
2023-03-07T01:21:29.869Z,95.57
2023-03-07T01:23:56.442Z,96.43
2023-03-07T01:26:25.631Z,95.77
2023-03-07T01:28:53.414Z,94.79
2023-03-07T01:31:20.051Z,94.66
2023-03-07T01:33:51.284Z,95.94
2023-03-07T01:36:25.454Z,94.83
2023-03-07T01:38:55.764Z,94.22
2023-03-07T01:41:22.724Z,94.35
2023-03-07T01:43:49.229Z,93.73
2023-03-07T01:46:18.456Z,93.38
2023-03-07T01:48:48.542Z,93.22
2023-03-07T01:51:15.202Z,93.06
2023-03-07T01:53:41.651Z,92.89
2023-03-07T01:56:09.082Z,92.29
2023-03-07T01:58:38.936Z,93.52
2023-03-07T02:01:09.239Z,93.13
2023-03-07T02:03:41.737Z,94.03
2023-03-07T02:06:10.718Z,93.86
2023-03-07T02:08:39.038Z,94.01
2023-03-07T02:11:06.957Z,93.29
2023-03-07T02:13:33.565Z,92.55
2023-03-07T02:16:02.249Z,92.32
2023-03-07T02:18:33.672Z,91.73
2023-03-07T02:21:19.255Z,91.38
2023-03-07T02:24:01.210Z,91.96
2023-03-07T02:26:30.681Z,92.09
2023-03-07T02:28:58.629Z,91.45
2023-03-07T02:31:25.547Z,91.21
2023-03-07T02:33:52.089Z,89.61
2023-03-07T02:36:29.199Z,92.43
2023-03-07T02:38:58.414Z,90.94
2023-03-07T02:41:28.826Z,91.58
2023-03-07T02:43:55.314Z,87.81
2023-03-07T02:46:21.796Z,90.88
2023-03-07T02:48:48.408Z,91.39
2023-03-07T02:51:16.914Z,90.71
2023-03-07T02:53:43.990Z,91.05
2023-03-07T02:56:11.282Z,91.86
2023-03-07T02:58:37.739Z,91.85
2023-03-07T03:01:04.482Z,92.04
2023-03-07T03:03:31.495Z,92.52
2023-03-07T03:05:58.018Z,92.91
2023-03-07T03:08:24.640Z,93.28
2023-03-07T03:10:55.382Z,90.97
2023-03-07T03:13:22.611Z,91.55
2023-03-07T03:15:49.205Z,90.09
2023-03-07T03:18:15.846Z,91.96
2023-03-07T03:20:42.552Z,92.11
2023-03-07T03:23:12.420Z,90.28
2023-03-07T03:25:40.325Z,89.94
2023-03-07T03:28:06.878Z,90.88
2023-03-07T03:30:35.981Z,92.11
2023-03-07T03:33:03.422Z,92.81
2023-03-07T03:35:30.137Z,91.99
2023-03-07T03:37:56.740Z,91.04
2023-03-07T03:40:23.314Z,91.08
2023-03-07T03:42:50.846Z,91.84
2023-03-07T03:45:17.400Z,92.69
2023-03-07T03:47:45.015Z,90.15
2023-03-07T03:50:11.787Z,90.54
2023-03-07T03:52:45.152Z,90.50
2023-03-07T03:55:12.100Z,92.32
2023-03-07T03:57:38.899Z,89.04
2023-03-07T04:00:08.542Z,90.63
2023-03-07T04:02:35.123Z,92.78
2023-03-07T04:05:01.680Z,92.92
2023-03-07T04:07:29.153Z,93.69
2023-03-07T04:09:56.697Z,92.44
2023-03-07T04:12:24.218Z,95.98
2023-03-07T04:14:50.628Z,95.58
2023-03-07T04:17:17.088Z,97.31
2023-03-07T04:19:43.500Z,96.40
2023-03-07T04:22:11.369Z,98.00
2023-03-07T04:24:37.880Z,99.38
2023-03-07T04:27:05.095Z,100.00
2023-03-07T04:29:37.461Z,100.00
2023-03-07T04:32:04.174Z,100.00
2023-03-07T04:34:30.738Z,100.00
2023-03-07T04:36:57.371Z,100.00
2023-03-07T04:39:23.820Z,100.00
2023-03-07T04:41:50.305Z,100.00
2023-03-07T04:44:17.245Z,100.00
2023-03-07T04:46:45.763Z,100.00
2023-03-07T04:49:14.305Z,100.00
2023-03-07T04:51:43.100Z,100.00
2023-03-07T04:54:10.676Z,100.00
2023-03-07T04:56:37.326Z,100.00
2023-03-07T04:59:04.830Z,100.00
2023-03-07T05:01:31.314Z,100.00
2023-03-07T05:03:57.924Z,100.00
2023-03-07T05:06:24.746Z,100.00
2023-03-07T05:08:52.293Z,100.00
2023-03-07T05:11:18.945Z,100.00
2023-03-07T05:13:46.460Z,100.00
2023-03-07T05:16:13.153Z,100.00
2023-03-07T05:18:40.717Z,100.00
2023-03-07T05:21:07.127Z,100.00
2023-03-07T05:23:33.565Z,100.00
2023-03-07T05:26:00.063Z,100.00
2023-03-07T05:28:26.542Z,100.00
2023-03-07T05:30:53.105Z,100.00
2023-03-07T05:33:20.240Z,100.00
2023-03-07T05:35:48.097Z,100.00
2023-03-07T05:38:15.031Z,100.00
2023-03-07T05:40:41.444Z,100.00
2023-03-07T05:43:07.972Z,100.00
2023-03-07T05:45:34.480Z,100.00
2023-03-07T05:48:01.397Z,100.00
2023-03-07T05:50:27.916Z,100.00
2023-03-07T05:52:54.654Z,100.00
2023-03-07T05:55:21.385Z,100.00
2023-03-07T05:57:47.910Z,100.00
2023-03-07T06:00:15.991Z,100.00
2023-03-07T06:02:42.710Z,100.00
2023-03-07T06:05:09.505Z,100.00
2023-03-07T06:07:35.922Z,100.00
2023-03-07T06:10:02.452Z,100.00
2023-03-07T06:12:29.927Z,100.00
2023-03-07T06:14:56.366Z,100.00
2023-03-07T06:17:22.803Z,100.00
2023-03-07T06:19:49.209Z,100.00
2023-03-07T06:22:15.731Z,100.00
2023-03-07T06:24:42.698Z,100.00
2023-03-07T06:27:09.100Z,100.00
2023-03-07T06:29:36.094Z,100.00
2023-03-07T06:32:02.501Z,100.00
2023-03-07T06:34:29.015Z,100.00
2023-03-07T06:36:55.577Z,100.00
2023-03-07T06:39:22.124Z,100.00
2023-03-07T06:41:54.652Z,100.00
2023-03-07T06:44:21.208Z,99.28
2023-03-07T06:46:47.687Z,99.49
2023-03-07T06:49:14.245Z,100.00
2023-03-07T06:51:41.705Z,100.00
2023-03-07T06:54:08.235Z,100.00
2023-03-07T06:56:35.934Z,100.00
2023-03-07T06:59:03.312Z,99.51
2023-03-07T07:01:35.929Z,99.30
2023-03-07T07:04:02.437Z,100.00
2023-03-07T07:06:30.044Z,100.00
2023-03-07T07:08:57.662Z,100.00
2023-03-07T07:11:25.035Z,100.00
2023-03-07T07:13:51.634Z,100.00
2023-03-07T07:16:18.782Z,100.00
2023-03-07T07:18:45.871Z,99.65
2023-03-07T07:21:12.448Z,100.00
2023-03-07T07:23:38.988Z,100.00
2023-03-07T07:26:05.748Z,100.00
2023-03-07T07:28:34.346Z,100.00
2023-03-07T07:31:00.850Z,100.00
2023-03-07T07:33:27.686Z,100.00
2023-03-07T07:35:54.256Z,100.00
2023-03-07T07:38:20.694Z,100.00
2023-03-07T07:40:47.234Z,100.00
2023-03-07T07:43:17.744Z,100.00
2023-03-07T07:45:44.500Z,100.00
2023-03-07T07:48:11.074Z,100.00
2023-03-07T07:50:37.782Z,100.00
2023-03-07T07:53:04.722Z,100.00
2023-03-07T07:55:31.544Z,100.00
2023-03-07T07:57:58.092Z,99.88
2023-03-07T08:00:24.851Z,97.40
2023-03-07T08:02:52.393Z,98.78
2023-03-07T08:05:20.568Z,98.52
2023-03-07T08:07:47.251Z,97.13
2023-03-07T08:10:17.678Z,98.58
2023-03-07T08:12:47.701Z,94.69
2023-03-07T08:15:17.058Z,97.65
2023-03-07T08:17:44.361Z,98.04
2023-03-07T08:20:11.258Z,97.10
2023-03-07T08:22:39.530Z,98.55
2023-03-07T08:25:08.015Z,100.00
2023-03-07T08:27:34.479Z,96.94
2023-03-07T08:30:01.538Z,94.40
2023-03-07T08:32:31.317Z,94.59
2023-03-07T08:34:57.827Z,97.60
2023-03-07T08:37:24.358Z,97.03
2023-03-07T08:39:50.987Z,98.83
2023-03-07T08:42:18.611Z,98.94
2023-03-07T08:44:45.110Z,96.50
2023-03-07T08:47:13.405Z,96.41
2023-03-07T08:49:40.724Z,93.81
2023-03-07T08:52:07.292Z,93.70
2023-03-07T08:54:33.893Z,95.49
2023-03-07T08:57:00.657Z,97.27
2023-03-07T08:59:27.293Z,95.76
2023-03-07T09:01:54.071Z,95.64
2023-03-07T09:04:20.558Z,96.06
2023-03-07T09:06:47.062Z,94.43
2023-03-07T09:09:13.558Z,94.80
2023-03-07T09:11:40.062Z,95.33
2023-03-07T09:14:06.702Z,95.95
2023-03-07T09:16:33.159Z,95.37
2023-03-07T09:18:59.710Z,93.41
2023-03-07T09:21:26.196Z,94.33
2023-03-07T09:23:52.789Z,95.62
2023-03-07T09:26:19.392Z,92.58
2023-03-07T09:28:46.473Z,93.17
2023-03-07T09:31:15.432Z,93.82
2023-03-07T09:33:43.515Z,93.98
2023-03-07T09:36:12.775Z,93.41
2023-03-07T09:38:39.771Z,91.94
2023-03-07T09:41:42.512Z,91.77
2023-03-07T09:44:41.019Z,89.96
2023-03-07T09:47:25.654Z,87.89
2023-03-07T09:49:53.635Z,89.49
2023-03-07T09:52:23.547Z,88.13
2023-03-07T09:54:56.733Z,91.03
2023-03-07T09:57:28.630Z,90.09
2023-03-07T09:59:56.700Z,87.96
2023-03-07T10:02:32.739Z,86.69
2023-03-07T10:05:08.295Z,85.42
2023-03-07T10:07:35.717Z,87.21
2023-03-07T10:10:12.163Z,87.07
2023-03-07T10:12:53.131Z,85.01
2023-03-07T10:15:45.819Z,83.93
2023-03-07T10:18:27.323Z,81.80
2023-03-07T10:21:12.293Z,81.44
2023-03-07T10:23:59.962Z,80.84
2023-03-07T10:26:34.625Z,81.35
2023-03-07T10:29:15.132Z,80.04
2023-03-07T10:32:04.670Z,79.57
2023-03-07T10:34:32.898Z,79.31
2023-03-07T10:37:10.845Z,79.14
2023-03-07T10:39:48.791Z,78.11
2023-03-07T10:42:17.654Z,77.83
2023-03-07T10:44:46.088Z,76.78
2023-03-07T10:47:24.339Z,77.49
2023-03-07T10:49:55.378Z,76.62
2023-03-07T10:52:33.923Z,77.24
2023-03-07T10:55:36.681Z,76.26
2023-03-07T10:58:29.963Z,76.08
2023-03-07T11:01:08.659Z,75.69
2023-03-07T11:03:58.224Z,74.38
2023-03-07T11:06:27.874Z,75.33
2023-03-07T11:08:56.210Z,73.35
2023-03-07T11:11:25.564Z,72.89
2023-03-07T11:14:18.997Z,71.62
2023-03-07T11:16:57.016Z,70.91
2023-03-07T11:19:28.825Z,69.34
2023-03-07T11:21:58.816Z,69.39
2023-03-07T11:24:27.747Z,66.80
2023-03-07T11:26:56.347Z,65.72
2023-03-07T11:29:22.923Z,63.68
2023-03-07T11:32:15.455Z,67.08
2023-03-07T11:34:52.787Z,66.27
2023-03-07T11:37:34.248Z,66.26
2023-03-07T11:40:12.705Z,64.86
2023-03-07T11:42:50.174Z,66.03
2023-03-07T11:45:33.395Z,65.73
2023-03-07T11:48:34.492Z,65.98
2023-03-07T11:51:03.320Z,66.19
2023-03-07T11:53:43.557Z,65.22
2023-03-07T11:56:35.430Z,66.68
2023-03-07T11:59:14.849Z,66.79
2023-03-07T12:01:41.238Z,66.18
2023-03-07T12:04:45.876Z,67.13
2023-03-07T12:07:15.201Z,68.94
2023-03-07T12:09:51.513Z,68.82
2023-03-07T12:12:23.903Z,69.47
2023-03-07T12:15:15.074Z,68.46
2023-03-07T12:17:56.690Z,69.07
2023-03-07T12:20:47.185Z,68.21
2023-03-07T12:23:25.616Z,68.69
2023-03-07T12:25:56.135Z,68.07
2023-03-07T12:28:32.518Z,67.85
2023-03-07T12:31:02.915Z,67.47
2023-03-07T12:33:54.097Z,66.55
2023-03-07T12:36:46.362Z,67.17
2023-03-07T12:39:18.063Z,67.49
2023-03-07T12:41:59.620Z,66.69
2023-03-07T12:44:40.034Z,67.72
2023-03-07T12:47:44.620Z,66.84
2023-03-07T12:50:17.086Z,65.05
2023-03-07T12:53:10.467Z,63.04
2023-03-07T12:55:43.168Z,64.11
2023-03-07T12:58:41.858Z,63.67
2023-03-07T13:01:17.632Z,62.92
2023-03-07T13:03:44.384Z,62.92
2023-03-07T13:06:18.271Z,63.72
2023-03-07T13:08:47.952Z,64.25
2023-03-07T13:11:22.874Z,63.44
2023-03-07T13:13:53.652Z,62.23
2023-03-07T13:16:34.333Z,61.52
2023-03-07T13:19:36.431Z,62.17
2023-03-07T13:22:24.953Z,62.04
2023-03-07T13:24:56.599Z,63.09
2023-03-07T13:27:41.047Z,60.77
2023-03-07T13:30:10.643Z,62.63
2023-03-07T13:32:52.126Z,61.61
2023-03-07T13:35:24.531Z,62.08
2023-03-07T13:37:56.999Z,61.64
2023-03-07T13:40:35.564Z,62.03
2023-03-07T13:43:03.894Z,63.29
2023-03-07T13:45:39.131Z,62.28
2023-03-07T13:48:30.485Z,60.66
2023-03-07T13:50:56.986Z,59.88
2023-03-07T13:53:45.429Z,60.49
2023-03-07T13:56:19.857Z,62.01
2023-03-07T13:58:47.472Z,60.10
2023-03-07T14:01:18.467Z,58.96
2023-03-07T14:03:51.189Z,57.33
2023-03-07T14:06:22.263Z,58.47
2023-03-07T14:08:50.781Z,57.56
2023-03-07T14:11:42.213Z,58.50
2023-03-07T14:14:35.802Z,57.54
2023-03-07T14:17:02.131Z,57.95
2023-03-07T14:19:50.261Z,57.39
2023-03-07T14:22:58.005Z,58.33
2023-03-07T14:25:31.765Z,58.49
2023-03-07T14:28:05.713Z,58.07
2023-03-07T14:30:34.109Z,57.54
2023-03-07T14:33:01.657Z,58.21
2023-03-07T14:35:39.219Z,58.29
2023-03-07T14:38:07.979Z,58.56
2023-03-07T14:40:47.478Z,57.32
2023-03-07T14:43:32.531Z,57.70
2023-03-07T14:46:40.815Z,57.63
2023-03-07T14:49:32.640Z,57.83
2023-03-07T14:52:02.195Z,58.08
2023-03-07T14:54:33.272Z,57.99
2023-03-07T14:57:03.147Z,58.73
2023-03-07T14:59:29.746Z,59.07
2023-03-07T15:01:57.251Z,58.67
2023-03-07T15:04:27.959Z,57.93
2023-03-07T15:07:00.841Z,58.90
2023-03-07T15:09:34.375Z,57.62
2023-03-07T15:12:16.832Z,59.04
2023-03-07T15:14:49.379Z,57.96
2023-03-07T15:17:28.669Z,58.82
2023-03-07T15:20:17.036Z,58.02
2023-03-07T15:22:43.631Z,58.01
2023-03-07T15:25:22.352Z,56.97
2023-03-07T15:28:05.816Z,57.00
2023-03-07T15:30:34.960Z,57.41
2023-03-07T15:33:13.806Z,57.17
2023-03-07T15:35:40.395Z,57.54
2023-03-07T15:38:15.371Z,57.38
2023-03-07T15:40:43.204Z,57.31
2023-03-07T15:43:39.232Z,56.33
2023-03-07T15:46:17.560Z,55.93
2023-03-07T15:48:52.740Z,55.92
2023-03-07T15:51:25.207Z,57.94
2023-03-07T15:54:25.622Z,57.15
2023-03-07T15:56:59.446Z,56.71
2023-03-07T15:59:37.034Z,56.13
2023-03-07T16:02:31.905Z,56.89
2023-03-07T16:05:01.768Z,57.63
2023-03-07T16:07:28.887Z,58.00
2023-03-07T16:09:57.941Z,57.94
2023-03-07T16:12:25.328Z,57.07
2023-03-07T16:14:54.898Z,57.23
2023-03-07T16:17:31.829Z,57.20
2023-03-07T16:19:58.677Z,57.80
2023-03-07T16:22:25.578Z,57.29
2023-03-07T16:24:52.169Z,56.50
2023-03-07T16:27:21.753Z,57.43
2023-03-07T16:29:50.428Z,57.31
2023-03-07T16:32:22.776Z,57.85
2023-03-07T16:34:55.077Z,57.04
2023-03-07T16:37:21.752Z,58.07
2023-03-07T16:39:48.272Z,56.95
2023-03-07T16:42:23.156Z,58.07
2023-03-07T16:44:51.660Z,57.99
2023-03-07T16:47:18.295Z,58.76
2023-03-07T16:49:46.629Z,58.57
2023-03-07T16:52:15.525Z,58.23
2023-03-07T16:54:41.995Z,58.75
2023-03-07T16:57:15.707Z,58.24
2023-03-07T16:59:45.525Z,59.75
2023-03-07T17:02:16.291Z,59.33
2023-03-07T17:04:44.364Z,59.21
2023-03-07T17:07:23.473Z,58.89
2023-03-07T17:09:50.808Z,59.69
2023-03-07T17:12:20.561Z,60.45
2023-03-07T17:14:48.204Z,59.96
2023-03-07T17:17:23.899Z,58.74
2023-03-07T17:19:57.104Z,60.33
2023-03-07T17:22:27.641Z,59.71
2023-03-07T17:24:55.039Z,59.30
2023-03-07T17:27:21.950Z,58.83
2023-03-07T17:29:52.328Z,59.78
2023-03-07T17:32:18.844Z,59.50
2023-03-07T17:34:45.340Z,59.12
2023-03-07T17:37:12.633Z,59.99
2023-03-07T17:39:40.020Z,59.95
2023-03-07T17:42:07.308Z,59.66
2023-03-07T17:44:33.780Z,59.85
2023-03-07T17:47:00.920Z,59.62
2023-03-07T17:49:36.858Z,59.63
2023-03-07T17:52:06.187Z,60.67
2023-03-07T17:54:33.282Z,59.95
2023-03-07T17:57:01.636Z,60.74
2023-03-07T17:59:31.475Z,60.47
2023-03-07T18:01:58.164Z,60.33
2023-03-07T18:04:28.491Z,60.89
2023-03-07T18:06:54.957Z,60.62
2023-03-07T18:09:23.040Z,61.05
2023-03-07T18:11:49.729Z,60.91
2023-03-07T18:14:16.254Z,61.09
2023-03-07T18:16:43.932Z,61.24
2023-03-07T18:19:25.432Z,61.62
2023-03-07T18:21:52.448Z,61.64
2023-03-07T18:24:21.653Z,61.26
2023-03-07T18:26:51.492Z,61.50
2023-03-07T18:29:19.476Z,60.97
2023-03-07T18:31:46.799Z,60.82
2023-03-07T18:34:15.228Z,61.50
2023-03-07T18:36:51.713Z,61.18
2023-03-07T18:39:19.934Z,61.08
2023-03-07T18:41:46.594Z,60.98
2023-03-07T18:44:13.178Z,60.79
2023-03-07T18:46:39.682Z,61.48
2023-03-07T18:49:08.203Z,60.31
2023-03-07T18:51:35.658Z,60.76
2023-03-07T18:54:03.581Z,60.88
2023-03-07T18:56:30.642Z,61.11
2023-03-07T18:59:01.555Z,61.20
2023-03-07T19:01:35.958Z,61.17
2023-03-07T19:04:05.321Z,60.78
2023-03-07T19:06:35.833Z,60.10
2023-03-07T19:09:03.709Z,61.13
2023-03-07T19:11:31.209Z,61.04
2023-03-07T19:13:59.672Z,60.47
2023-03-07T19:16:28.431Z,60.50
2023-03-07T19:18:58.247Z,60.55
2023-03-07T19:21:28.907Z,60.59
2023-03-07T19:23:57.279Z,60.77
2023-03-07T19:26:24.240Z,60.73
2023-03-07T19:28:52.770Z,61.06
2023-03-07T19:31:25.471Z,60.75
2023-03-07T19:33:55.318Z,60.96
2023-03-07T19:36:28.096Z,60.79
2023-03-07T19:38:58.883Z,61.10
2023-03-07T19:41:27.220Z,61.26
2023-03-07T19:43:55.642Z,61.62
2023-03-07T19:46:22.689Z,61.50
2023-03-07T19:48:50.493Z,61.58
2023-03-07T19:51:24.504Z,62.28
2023-03-07T19:53:51.743Z,61.88
2023-03-07T19:56:22.450Z,62.28
2023-03-07T19:58:49.528Z,61.79
2023-03-07T20:01:19.345Z,62.83
2023-03-07T20:03:47.741Z,63.25
2023-03-07T20:06:29.554Z,63.14
2023-03-07T20:08:56.775Z,63.18
2023-03-07T20:11:28.291Z,62.72
2023-03-07T20:13:56.547Z,63.48
2023-03-07T20:16:24.642Z,63.63
2023-03-07T20:18:52.763Z,63.90
2023-03-07T20:21:21.621Z,64.11
2023-03-07T20:23:48.985Z,63.53
2023-03-07T20:26:22.508Z,64.22
2023-03-07T20:28:57.044Z,64.36
2023-03-07T20:31:25.948Z,63.59
2023-03-07T20:33:52.646Z,63.87
2023-03-07T20:36:27.602Z,64.54
2023-03-07T20:38:57.143Z,64.73
2023-03-07T20:41:27.862Z,64.47
2023-03-07T20:44:00.009Z,64.94
2023-03-07T20:46:27.088Z,65.05
2023-03-07T20:48:55.549Z,65.58
2023-03-07T20:51:27.344Z,64.85
2023-03-07T20:53:59.862Z,65.26
2023-03-07T20:56:28.847Z,65.80
2023-03-07T20:58:56.770Z,66.67
2023-03-07T21:01:25.362Z,65.91
2023-03-07T21:04:08.578Z,65.98
2023-03-07T21:06:36.956Z,66.02
2023-03-07T21:09:07.988Z,65.87
2023-03-07T21:11:36.670Z,66.92
2023-03-07T21:14:03.759Z,66.77
2023-03-07T21:16:30.900Z,66.17
2023-03-07T21:19:02.098Z,66.57
2023-03-07T21:21:30.697Z,66.73
2023-03-07T21:23:57.713Z,66.69
2023-03-07T21:26:27.636Z,66.72
2023-03-07T21:29:00.474Z,66.70
2023-03-07T21:31:29.528Z,66.83
2023-03-07T21:33:59.230Z,67.23
2023-03-07T21:36:27.205Z,67.43
2023-03-07T21:38:54.406Z,65.56
2023-03-07T21:41:27.693Z,67.14
2023-03-07T21:43:55.459Z,67.31
2023-03-07T21:46:23.006Z,67.00
2023-03-07T21:48:49.898Z,67.76
2023-03-07T21:51:18.467Z,66.97
2023-03-07T21:53:45.307Z,67.33
2023-03-07T21:56:13.967Z,67.13
2023-03-07T21:58:40.896Z,67.09
2023-03-07T22:01:17.359Z,67.46
2023-03-07T22:03:44.487Z,68.28
2023-03-07T22:06:14.036Z,67.13
2023-03-07T22:08:41.296Z,67.70
2023-03-07T22:11:09.630Z,67.66
2023-03-07T22:13:39.769Z,67.32
2023-03-07T22:16:09.784Z,67.35
2023-03-07T22:18:36.740Z,67.82
2023-03-07T22:21:14.411Z,67.34
2023-03-07T22:23:41.649Z,67.92
2023-03-07T22:26:12.265Z,68.17
2023-03-07T22:28:40.650Z,68.53
2023-03-07T22:31:12.609Z,68.03
2023-03-07T22:33:39.710Z,67.96
2023-03-07T22:36:08.691Z,67.10
2023-03-07T22:38:35.224Z,67.15
2023-03-07T22:41:22.962Z,67.30
2023-03-07T22:43:49.506Z,68.53
2023-03-07T22:46:15.965Z,67.77
2023-03-07T22:48:44.530Z,67.93
2023-03-07T22:51:17.725Z,67.30
2023-03-07T22:53:44.565Z,66.98
2023-03-07T22:56:20.259Z,67.12
2023-03-07T22:58:46.862Z,67.41
2023-03-07T23:01:28.170Z,68.00
2023-03-07T23:03:56.593Z,67.24
2023-03-07T23:06:25.955Z,68.61
2023-03-07T23:08:53.449Z,67.54
2023-03-07T23:11:23.916Z,67.76
2023-03-07T23:13:50.724Z,67.62
2023-03-07T23:16:21.553Z,67.39
2023-03-07T23:18:54.758Z,66.91
2023-03-07T23:21:29.871Z,68.70
2023-03-07T23:23:57.097Z,67.74
2023-03-07T23:26:29.977Z,67.03
2023-03-07T23:28:58.231Z,67.74
2023-03-07T23:31:28.286Z,66.78
2023-03-07T23:34:03.513Z,67.04
2023-03-07T23:36:30.915Z,66.86
2023-03-07T23:38:58.709Z,67.93
2023-03-07T23:41:27.043Z,67.20
2023-03-07T23:43:55.365Z,66.93
2023-03-07T23:46:22.437Z,67.17
2023-03-07T23:48:50.024Z,67.27
2023-03-07T23:51:16.763Z,67.35
2023-03-07T23:53:44.232Z,67.30
2023-03-07T23:56:12.493Z,66.55
2023-03-07T23:58:48.091Z,66.39
